sensor_id;sensor_type;location;lat;lon;timestamp;pressure;altitude;pressure_sealevel;temperature;humidity
53932;BME280;39844;52.496;13.482;2023-02-26T00:00:13;101032.09;;;0.26;95.16
53932;BME280;39844;52.496;13.482;2023-02-26T00:02:38;101036.47;;;0.27;95.02
53932;BME280;39844;52.496;13.482;2023-02-26T00:05:05;101044.22;;;0.27;95.04
53932;BME280;39844;52.496;13.482;2023-02-26T00:07:30;101051.16;;;0.28;95.03
53932;BME280;39844;52.496;13.482;2023-02-26T00:09:56;101045.97;;;0.28;95.14
53932;BME280;39844;52.496;13.482;2023-02-26T00:12:21;101049.50;;;0.30;94.80
53932;BME280;39844;52.496;13.482;2023-02-26T00:14:47;101050.38;;;0.30;94.60
53932;BME280;39844;52.496;13.482;2023-02-26T00:17:32;101057.25;;;0.30;94.03
53932;BME280;39844;52.496;13.482;2023-02-26T00:20:01;101062.41;;;0.30;93.94
53932;BME280;39844;52.496;13.482;2023-02-26T00:22:27;101066.81;;;0.32;93.85
53932;BME280;39844;52.496;13.482;2023-02-26T00:24:52;101065.13;;;0.33;93.43
53932;BME280;39844;52.496;13.482;2023-02-26T00:27:18;101067.63;;;0.31;92.88
53932;BME280;39844;52.496;13.482;2023-02-26T00:29:44;101070.28;;;0.33;93.11
53932;BME280;39844;52.496;13.482;2023-02-26T00:32:09;101071.22;;;0.35;92.93
53932;BME280;39844;52.496;13.482;2023-02-26T00:34:35;101076.41;;;0.35;92.69
53932;BME280;39844;52.496;13.482;2023-02-26T00:42:22;101098.72;;;0.34;91.86
53932;BME280;39844;52.496;13.482;2023-02-26T00:44:47;101091.88;;;0.35;92.13
53932;BME280;39844;52.496;13.482;2023-02-26T00:52:13;101096.09;;;0.33;91.57
53932;BME280;39844;52.496;13.482;2023-02-26T00:54:38;101103.84;;;0.33;91.40
53932;BME280;39844;52.496;13.482;2023-02-26T00:57:04;101103.91;;;0.34;91.47
53932;BME280;39844;52.496;13.482;2023-02-26T00:59:29;101115.25;;;0.38;91.80
53932;BME280;39844;52.496;13.482;2023-02-26T01:01:54;101117.88;;;0.39;91.55
53932;BME280;39844;52.496;13.482;2023-02-26T01:04:22;101109.25;;;0.39;91.33
53932;BME280;39844;52.496;13.482;2023-02-26T01:06:53;101115.34;;;0.41;91.29
53932;BME280;39844;52.496;13.482;2023-02-26T01:09:33;101116.25;;;0.41;90.93
53932;BME280;39844;52.496;13.482;2023-02-26T01:12:02;101118.91;;;0.43;90.92
53932;BME280;39844;52.496;13.482;2023-02-26T01:14:29;101126.72;;;0.44;90.50
53932;BME280;39844;52.496;13.482;2023-02-26T01:17:04;101125.00;;;0.45;90.26
53932;BME280;39844;52.496;13.482;2023-02-26T01:19:41;101125.06;;;0.46;89.80
53932;BME280;39844;52.496;13.482;2023-02-26T01:22:21;101133.69;;;0.47;89.31
53932;BME280;39844;52.496;13.482;2023-02-26T01:24:48;101125.06;;;0.46;89.36
53932;BME280;39844;52.496;13.482;2023-02-26T01:27:14;101135.41;;;0.46;89.02
53932;BME280;39844;52.496;13.482;2023-02-26T01:29:40;101136.28;;;0.47;89.00
53932;BME280;39844;52.496;13.482;2023-02-26T01:34:50;101136.41;;;0.50;88.85
53932;BME280;39844;52.496;13.482;2023-02-26T01:37:26;101140.69;;;0.49;88.56
53932;BME280;39844;52.496;13.482;2023-02-26T01:40:33;101135.53;;;0.49;88.57
53932;BME280;39844;52.496;13.482;2023-02-26T01:43:06;101144.16;;;0.50;88.43
53932;BME280;39844;52.496;13.482;2023-02-26T01:45:42;101141.59;;;0.50;88.77
53932;BME280;39844;52.496;13.482;2023-02-26T01:48:37;101154.56;;;0.51;89.00
53932;BME280;39844;52.496;13.482;2023-02-26T01:51:08;101150.28;;;0.52;88.95
53932;BME280;39844;52.496;13.482;2023-02-26T01:53:33;101157.22;;;0.53;88.89
53932;BME280;39844;52.496;13.482;2023-02-26T01:56:03;101148.63;;;0.54;88.73
53932;BME280;39844;52.496;13.482;2023-02-26T01:58:33;101158.97;;;0.54;88.54
53932;BME280;39844;52.496;13.482;2023-02-26T02:01:00;101159.91;;;0.56;88.37
53932;BME280;39844;52.496;13.482;2023-02-26T02:03:29;101154.69;;;0.54;88.24
53932;BME280;39844;52.496;13.482;2023-02-26T02:06:01;101168.53;;;0.56;88.25
53932;BME280;39844;52.496;13.482;2023-02-26T02:08:28;101166.84;;;0.57;88.32
53932;BME280;39844;52.496;13.482;2023-02-26T02:10:54;101175.47;;;0.57;88.03
53932;BME280;39844;52.496;13.482;2023-02-26T02:19:23;101173.84;;;0.59;86.93
53932;BME280;39844;52.496;13.482;2023-02-26T02:24:33;101193.75;;;0.62;86.37
53932;BME280;39844;52.496;13.482;2023-02-26T02:27:10;101190.38;;;0.63;86.11
53932;BME280;39844;52.496;13.482;2023-02-26T02:32:20;101200.69;;;0.63;86.00
53932;BME280;39844;52.496;13.482;2023-02-26T02:34:52;101195.53;;;0.63;86.02
53932;BME280;39844;52.496;13.482;2023-02-26T02:37:43;101213.59;;;0.63;85.51
53932;BME280;39844;52.496;13.482;2023-02-26T02:43:01;101204.97;;;0.62;85.18
53932;BME280;39844;52.496;13.482;2023-02-26T02:45:37;101209.38;;;0.65;85.02
53932;BME280;39844;52.496;13.482;2023-02-26T02:48:11;101214.59;;;0.67;85.35
53932;BME280;39844;52.496;13.482;2023-02-26T02:50:43;101230.06;;;0.65;84.50
53932;BME280;39844;52.496;13.482;2023-02-26T02:53:16;101229.16;;;0.64;84.86
53932;BME280;39844;52.496;13.482;2023-02-26T02:55:53;101228.28;;;0.64;84.62
53932;BME280;39844;52.496;13.482;2023-02-26T02:58:25;101232.63;;;0.65;84.41
53932;BME280;39844;52.496;13.482;2023-02-26T03:00:57;101228.28;;;0.64;84.34
53932;BME280;39844;52.496;13.482;2023-02-26T03:03:47;101236.03;;;0.64;84.29
53932;BME280;39844;52.496;13.482;2023-02-26T03:06:14;101234.28;;;0.63;83.90
53932;BME280;39844;52.496;13.482;2023-02-26T03:08:41;101239.44;;;0.63;83.78
53932;BME280;39844;52.496;13.482;2023-02-26T03:11:08;101235.06;;;0.62;83.62
53932;BME280;39844;52.496;13.482;2023-02-26T03:13:33;101244.47;;;0.60;83.40
53932;BME280;39844;52.496;13.482;2023-02-26T03:21:43;101252.22;;;0.60;83.94
53932;BME280;39844;52.496;13.482;2023-02-26T03:24:20;101248.75;;;0.59;84.29
53932;BME280;39844;52.496;13.482;2023-02-26T03:26:56;101260.75;;;0.59;83.92
53932;BME280;39844;52.496;13.482;2023-02-26T03:29:39;101266.75;;;0.58;84.04
53932;BME280;39844;52.496;13.482;2023-02-26T03:32:13;101271.84;;;0.56;83.64
53932;BME280;39844;52.496;13.482;2023-02-26T03:34:46;101278.63;;;0.54;83.82
53932;BME280;39844;52.496;13.482;2023-02-26T03:37:19;101277.75;;;0.54;83.99
53932;BME280;39844;52.496;13.482;2023-02-26T03:39:50;101286.34;;;0.53;84.51
53932;BME280;39844;52.496;13.482;2023-02-26T03:45:04;101303.53;;;0.52;84.65
53932;BME280;39844;52.496;13.482;2023-02-26T03:47:32;101310.38;;;0.52;84.70
53932;BME280;39844;52.496;13.482;2023-02-26T03:50:06;101308.75;;;0.54;84.63
53932;BME280;39844;52.496;13.482;2023-02-26T03:52:36;101312.28;;;0.56;85.15
53932;BME280;39844;52.496;13.482;2023-02-26T03:55:15;101326.16;;;0.58;84.89
53932;BME280;39844;52.496;13.482;2023-02-26T03:57:41;101321.00;;;0.58;85.03
53932;BME280;39844;52.496;13.482;2023-02-26T04:00:08;101319.22;;;0.57;85.42
53932;BME280;39844;52.496;13.482;2023-02-26T04:02:40;101334.84;;;0.60;85.43
53932;BME280;39844;52.496;13.482;2023-02-26T04:05:13;101333.06;;;0.59;84.89
53932;BME280;39844;52.496;13.482;2023-02-26T04:07:39;101338.25;;;0.59;84.93
53932;BME280;39844;52.496;13.482;2023-02-26T04:10:07;101337.38;;;0.58;85.34
53932;BME280;39844;52.496;13.482;2023-02-26T04:12:33;101340.81;;;0.59;85.29
53932;BME280;39844;52.496;13.482;2023-02-26T04:14:59;101336.50;;;0.58;85.23
53932;BME280;39844;52.496;13.482;2023-02-26T04:17:24;101341.66;;;0.58;85.58
53932;BME280;39844;52.496;13.482;2023-02-26T04:19:49;101340.69;;;0.56;85.09
53932;BME280;39844;52.496;13.482;2023-02-26T04:22:15;101345.03;;;0.57;84.95
53932;BME280;39844;52.496;13.482;2023-02-26T04:24:40;101345.03;;;0.57;84.69
53932;BME280;39844;52.496;13.482;2023-02-26T04:27:06;101343.34;;;0.57;84.68
53932;BME280;39844;52.496;13.482;2023-02-26T04:29:31;101356.25;;;0.57;84.65
53932;BME280;39844;52.496;13.482;2023-02-26T04:31:57;101354.63;;;0.59;84.58
53932;BME280;39844;52.496;13.482;2023-02-26T04:34:22;101361.56;;;0.60;84.99
53932;BME280;39844;52.496;13.482;2023-02-26T04:36:48;101362.47;;;0.61;84.58
53932;BME280;39844;52.496;13.482;2023-02-26T04:39:13;101373.66;;;0.61;84.74
53932;BME280;39844;52.496;13.482;2023-02-26T04:41:38;101384.88;;;0.62;84.43
53932;BME280;39844;52.496;13.482;2023-02-26T04:44:04;101373.66;;;0.61;84.20
53932;BME280;39844;52.496;13.482;2023-02-26T04:46:30;101390.94;;;0.62;84.12
53932;BME280;39844;52.496;13.482;2023-02-26T04:48:55;101385.81;;;0.64;83.97
53932;BME280;39844;52.496;13.482;2023-02-26T04:51:21;101392.63;;;0.62;83.55
53932;BME280;39844;52.496;13.482;2023-02-26T04:53:47;101397.00;;;0.63;83.57
53932;BME280;39844;52.496;13.482;2023-02-26T04:56:12;101396.16;;;0.64;83.32
53932;BME280;39844;52.496;13.482;2023-02-26T04:58:37;101400.53;;;0.65;83.36
53932;BME280;39844;52.496;13.482;2023-02-26T05:01:04;101412.63;;;0.66;82.85
53932;BME280;39844;52.496;13.482;2023-02-26T05:03:30;101407.47;;;0.66;83.27
53932;BME280;39844;52.496;13.482;2023-02-26T05:05:55;101406.59;;;0.66;82.93
53932;BME280;39844;52.496;13.482;2023-02-26T05:08:20;101416.91;;;0.66;82.45
53932;BME280;39844;52.496;13.482;2023-02-26T05:10:46;101416.03;;;0.65;82.37
53932;BME280;39844;52.496;13.482;2023-02-26T05:13:11;101417.72;;;0.64;81.95
53932;BME280;39844;52.496;13.482;2023-02-26T05:15:36;101419.56;;;0.67;81.97
53932;BME280;39844;52.496;13.482;2023-02-26T05:18:02;101423.81;;;0.67;81.66
53932;BME280;39844;52.496;13.482;2023-02-26T05:20:27;101422.13;;;0.67;81.17
53932;BME280;39844;52.496;13.482;2023-02-26T05:22:53;101435.06;;;0.67;81.42
53932;BME280;39844;52.496;13.482;2023-02-26T05:25:18;101440.22;;;0.67;80.78
53932;BME280;39844;52.496;13.482;2023-02-26T05:27:43;101438.47;;;0.66;80.89
53932;BME280;39844;52.496;13.482;2023-02-26T05:30:11;101439.31;;;0.67;80.77
53932;BME280;39844;52.496;13.482;2023-02-26T05:32:37;101450.56;;;0.67;80.85
53932;BME280;39844;52.496;13.482;2023-02-26T05:35:03;101449.75;;;0.68;80.75
53932;BME280;39844;52.496;13.482;2023-02-26T05:37:28;101459.25;;;0.69;80.40
53932;BME280;39844;52.496;13.482;2023-02-26T05:39:53;101466.19;;;0.70;80.15
53932;BME280;39844;52.496;13.482;2023-02-26T05:42:19;101455.81;;;0.69;79.95
53932;BME280;39844;52.496;13.482;2023-02-26T05:44:44;101460.16;;;0.70;79.63
53932;BME280;39844;52.496;13.482;2023-02-26T05:47:09;101472.25;;;0.71;79.45
53932;BME280;39844;52.496;13.482;2023-02-26T05:49:35;101470.56;;;0.71;79.40
53932;BME280;39844;52.496;13.482;2023-02-26T05:52:00;101474.00;;;0.72;78.82
53932;BME280;39844;52.496;13.482;2023-02-26T05:54:25;101468.94;;;0.73;78.92
53932;BME280;39844;52.496;13.482;2023-02-26T05:56:51;101480.97;;;0.73;78.84
53932;BME280;39844;52.496;13.482;2023-02-26T05:59:16;101479.28;;;0.73;78.97
53932;BME280;39844;52.496;13.482;2023-02-26T06:01:42;101483.59;;;0.74;78.88
53932;BME280;39844;52.496;13.482;2023-02-26T06:04:07;101487.91;;;0.74;78.48
53932;BME280;39844;52.496;13.482;2023-02-26T06:06:33;101486.19;;;0.74;78.50
53932;BME280;39844;52.496;13.482;2023-02-26T06:08:59;101498.31;;;0.75;78.58
53932;BME280;39844;52.496;13.482;2023-02-26T06:11:25;101499.09;;;0.74;78.19
53932;BME280;39844;52.496;13.482;2023-02-26T06:13:50;101496.47;;;0.73;78.37
53932;BME280;39844;52.496;13.482;2023-02-26T06:16:15;101501.63;;;0.73;77.73
53932;BME280;39844;52.496;13.482;2023-02-26T06:18:41;101508.59;;;0.74;77.99
53932;BME280;39844;52.496;13.482;2023-02-26T06:21:06;101508.63;;;0.75;78.14
53932;BME280;39844;52.496;13.482;2023-02-26T06:23:32;101508.69;;;0.77;78.24
53932;BME280;39844;52.496;13.482;2023-02-26T06:25:57;101515.66;;;0.78;78.03
53932;BME280;39844;52.496;13.482;2023-02-26T06:28:22;101516.59;;;0.80;78.17
53932;BME280;39844;52.496;13.482;2023-02-26T06:30:48;101516.59;;;0.80;77.83
53932;BME280;39844;52.496;13.482;2023-02-26T06:33:13;101509.75;;;0.80;77.32
53932;BME280;39844;52.496;13.482;2023-02-26T06:35:38;101527.03;;;0.81;77.48
53932;BME280;39844;52.496;13.482;2023-02-26T06:38:04;101532.19;;;0.81;76.40
53932;BME280;39844;52.496;13.482;2023-02-26T06:40:29;101531.47;;;0.84;76.39
53932;BME280;39844;52.496;13.482;2023-02-26T06:42:55;101540.91;;;0.83;76.33
53932;BME280;39844;52.496;13.482;2023-02-26T06:45:21;101534.09;;;0.85;75.80
53932;BME280;39844;52.496;13.482;2023-02-26T06:47:46;101541.91;;;0.87;75.79
53932;BME280;39844;52.496;13.482;2023-02-26T06:50:11;101540.22;;;0.87;75.28
53932;BME280;39844;52.496;13.482;2023-02-26T06:52:37;101551.66;;;0.92;75.48
53932;BME280;39844;52.496;13.482;2023-02-26T06:55:03;101556.81;;;0.92;75.32
53932;BME280;39844;52.496;13.482;2023-02-26T06:57:29;101559.50;;;0.94;75.41
53932;BME280;39844;52.496;13.482;2023-02-26T06:59:54;101578.47;;;0.94;75.26
53932;BME280;39844;52.496;13.482;2023-02-26T07:02:21;101575.97;;;0.96;75.64
53932;BME280;39844;52.496;13.482;2023-02-26T07:04:46;101584.72;;;0.99;75.54
53932;BME280;39844;52.496;13.482;2023-02-26T07:07:12;101597.81;;;1.02;75.44
53932;BME280;39844;52.496;13.482;2023-02-26T07:09:37;101593.69;;;1.06;74.98
53932;BME280;39844;52.496;13.482;2023-02-26T07:12:03;101602.44;;;1.09;75.19
53932;BME280;39844;52.496;13.482;2023-02-26T07:14:28;101609.56;;;1.13;74.91
53932;BME280;39844;52.496;13.482;2023-02-26T07:16:54;101607.13;;;1.16;74.46
53932;BME280;39844;52.496;13.482;2023-02-26T07:19:19;101603.06;;;1.21;74.80
53932;BME280;39844;52.496;13.482;2023-02-26T07:21:44;101606.00;;;1.29;74.77
53932;BME280;39844;52.496;13.482;2023-02-26T07:24:10;101618.34;;;1.35;74.02
53932;BME280;39844;52.496;13.482;2023-02-26T07:26:35;101627.84;;;1.36;73.58
53932;BME280;39844;52.496;13.482;2023-02-26T07:29:00;101632.28;;;1.38;74.25
53932;BME280;39844;52.496;13.482;2023-02-26T07:31:26;101629.78;;;1.40;73.49
53932;BME280;39844;52.496;13.482;2023-02-26T07:33:51;101640.13;;;1.40;73.05
53932;BME280;39844;52.496;13.482;2023-02-26T07:36:16;101656.41;;;1.37;73.59
53932;BME280;39844;52.496;13.482;2023-02-26T07:38:42;101650.03;;;1.31;73.23
53932;BME280;39844;52.496;13.482;2023-02-26T07:41:07;101655.78;;;1.25;73.58
53932;BME280;39844;52.496;13.482;2023-02-26T07:43:33;101665.28;;;1.24;73.58
53932;BME280;39844;52.496;13.482;2023-02-26T07:45:58;101669.69;;;1.27;73.77
53932;BME280;39844;52.496;13.482;2023-02-26T07:48:23;101664.75;;;1.32;74.36
53932;BME280;39844;52.496;13.482;2023-02-26T07:50:51;101668.44;;;1.37;74.09
53932;BME280;39844;52.496;13.482;2023-02-26T07:53:17;101671.91;;;1.37;72.80
53932;BME280;39844;52.496;13.482;2023-02-26T07:55:42;101671.81;;;1.36;72.87
53932;BME280;39844;52.496;13.482;2023-02-26T07:58:07;101671.75;;;1.34;73.32
53932;BME280;39844;52.496;13.482;2023-02-26T08:00:32;101670.94;;;1.35;72.79
53932;BME280;39844;52.496;13.482;2023-02-26T08:02:58;101680.41;;;1.35;73.07
53932;BME280;39844;52.496;13.482;2023-02-26T08:05:23;101685.50;;;1.33;72.88
53932;BME280;39844;52.496;13.482;2023-02-26T08:07:48;101678.47;;;1.31;72.72
53932;BME280;39844;52.496;13.482;2023-02-26T08:10:14;101688.81;;;1.31;72.42
53932;BME280;39844;52.496;13.482;2023-02-26T08:12:39;101687.88;;;1.28;72.51
53932;BME280;39844;52.496;13.482;2023-02-26T08:15:05;101691.41;;;1.31;72.54
53932;BME280;39844;52.496;13.482;2023-02-26T08:17:30;101705.28;;;1.33;72.48
53932;BME280;39844;52.496;13.482;2023-02-26T08:19:56;101703.69;;;1.35;72.14
53932;BME280;39844;52.496;13.482;2023-02-26T08:22:21;101707.22;;;1.37;72.69
53932;BME280;39844;52.496;13.482;2023-02-26T08:24:46;101714.16;;;1.38;71.86
53932;BME280;39844;52.496;13.482;2023-02-26T08:27:12;101714.16;;;1.38;71.51
53932;BME280;39844;52.496;13.482;2023-02-26T08:29:37;101723.75;;;1.40;71.76
53932;BME280;39844;52.496;13.482;2023-02-26T08:32:02;101726.44;;;1.42;71.60
53932;BME280;39844;52.496;13.482;2023-02-26T08:34:28;101722.28;;;1.45;71.28
53932;BME280;39844;52.496;13.482;2023-02-26T08:36:53;101728.50;;;1.49;71.67
53932;BME280;39844;52.496;13.482;2023-02-26T08:39:18;101731.16;;;1.50;71.69
53932;BME280;39844;52.496;13.482;2023-02-26T08:41:44;101739.00;;;1.52;71.50
53932;BME280;39844;52.496;13.482;2023-02-26T08:44:09;101733.09;;;1.54;71.64
53932;BME280;39844;52.496;13.482;2023-02-26T08:46:35;101733.25;;;1.57;71.64
53932;BME280;39844;52.496;13.482;2023-02-26T08:49:00;101735.22;;;1.63;71.89
53932;BME280;39844;52.496;13.482;2023-02-26T08:51:25;101749.25;;;1.68;71.96
53932;BME280;39844;52.496;13.482;2023-02-26T08:53:51;101752.69;;;1.67;70.86
53932;BME280;39844;52.496;13.482;2023-02-26T08:56:16;101744.19;;;1.69;70.87
53932;BME280;39844;52.496;13.482;2023-02-26T08:58:42;101752.00;;;1.71;70.73
53932;BME280;39844;52.496;13.482;2023-02-26T09:01:08;101753.78;;;1.72;69.63
53932;BME280;39844;52.496;13.482;2023-02-26T09:03:33;101753.94;;;1.75;69.87
53932;BME280;39844;52.496;13.482;2023-02-26T09:05:59;101760.00;;;1.75;69.22
53932;BME280;39844;52.496;13.482;2023-02-26T09:08:24;101763.47;;;1.76;69.04
53932;BME280;39844;52.496;13.482;2023-02-26T09:10:49;101770.63;;;1.81;69.99
53932;BME280;39844;52.496;13.482;2023-02-26T09:13:15;101769.16;;;1.86;70.15
53932;BME280;39844;52.496;13.482;2023-02-26T09:15:40;101773.59;;;1.89;69.64
53932;BME280;39844;52.496;13.482;2023-02-26T09:18:06;101772.09;;;1.94;69.49
53932;BME280;39844;52.496;13.482;2023-02-26T09:20:31;101767.22;;;2.00;69.31
53932;BME280;39844;52.496;13.482;2023-02-26T09:22:57;101769.13;;;2.04;68.95
53932;BME280;39844;52.496;13.482;2023-02-26T09:25:22;101777.09;;;2.09;68.69
53932;BME280;39844;52.496;13.482;2023-02-26T09:27:48;101780.00;;;2.15;69.10
53932;BME280;39844;52.496;13.482;2023-02-26T09:30:14;101777.69;;;2.21;68.61
53932;BME280;39844;52.496;13.482;2023-02-26T09:32:39;101790.84;;;2.25;67.79
53932;BME280;39844;52.496;13.482;2023-02-26T09:35:05;101794.84;;;2.36;68.17
53932;BME280;39844;52.496;13.482;2023-02-26T09:37:31;101797.03;;;2.46;67.54
53932;BME280;39844;52.496;13.482;2023-02-26T09:39:56;101813.00;;;2.55;67.00
53932;BME280;39844;52.496;13.482;2023-02-26T09:45:17;101817.66;;;2.82;67.15
53932;BME280;39844;52.496;13.482;2023-02-26T09:47:49;101816.56;;;2.77;64.89
53932;BME280;39844;52.496;13.482;2023-02-26T09:50:21;101816.13;;;2.68;64.80
53932;BME280;39844;52.496;13.482;2023-02-26T09:53:06;101825.00;;;2.53;64.70
53932;BME280;39844;52.496;13.482;2023-02-26T09:55:38;101819.38;;;2.44;65.24
53932;BME280;39844;52.496;13.482;2023-02-26T09:58:12;101836.41;;;2.39;64.92
53932;BME280;39844;52.496;13.482;2023-02-26T10:00:43;101835.59;;;2.40;65.67
53932;BME280;39844;52.496;13.482;2023-02-26T10:08:55;101855.06;;;2.32;63.52
53932;BME280;39844;52.496;13.482;2023-02-26T10:11:29;101849.25;;;2.36;64.06
53932;BME280;39844;52.496;13.482;2023-02-26T10:14:11;101854.03;;;2.46;64.43
53932;BME280;39844;52.496;13.482;2023-02-26T10:16:42;101849.28;;;2.55;64.43
53932;BME280;39844;52.496;13.482;2023-02-26T10:19:18;101847.03;;;2.63;63.98
53932;BME280;39844;52.496;13.482;2023-02-26T10:24:31;101862.38;;;2.78;62.80
53932;BME280;39844;52.496;13.482;2023-02-26T10:27:08;101853.06;;;2.81;60.58
53932;BME280;39844;52.496;13.482;2023-02-26T10:29:52;101857.50;;;2.84;60.18
53932;BME280;39844;52.496;13.482;2023-02-26T10:32:27;101857.50;;;2.84;58.44
53932;BME280;39844;52.496;13.482;2023-02-26T10:34:57;101878.88;;;2.80;57.84
53932;BME280;39844;52.496;13.482;2023-02-26T10:40:13;101869.63;;;2.85;58.26
53932;BME280;39844;52.496;13.482;2023-02-26T10:42:54;101884.66;;;2.92;57.74
53932;BME280;39844;52.496;13.482;2023-02-26T10:45:46;101888.16;;;2.92;56.91
53932;BME280;39844;52.496;13.482;2023-02-26T10:51:22;101890.19;;;2.99;56.72
53932;BME280;39844;52.496;13.482;2023-02-26T10:53:53;101889.69;;;3.08;57.00
53932;BME280;39844;52.496;13.482;2023-02-26T10:56:26;101897.69;;;3.12;56.56
53932;BME280;39844;52.496;13.482;2023-02-26T10:58:53;101898.72;;;3.16;57.00
53932;BME280;39844;52.496;13.482;2023-02-26T11:01:20;101902.13;;;3.15;56.90
53932;BME280;39844;52.496;13.482;2023-02-26T11:03:49;101891.88;;;3.18;55.63
53932;BME280;39844;52.496;13.482;2023-02-26T11:06:23;101893.38;;;3.32;56.97
53932;BME280;39844;52.496;13.482;2023-02-26T11:08:51;101898.28;;;3.45;56.79
53932;BME280;39844;52.496;13.482;2023-02-26T11:11:42;101902.13;;;3.53;55.96
53932;BME280;39844;52.496;13.482;2023-02-26T11:14:09;101901.47;;;3.59;55.70
53932;BME280;39844;52.496;13.482;2023-02-26T11:16:41;101896.53;;;3.65;56.12
53932;BME280;39844;52.496;13.482;2023-02-26T11:19:13;101899.94;;;3.64;55.01
53932;BME280;39844;52.496;13.482;2023-02-26T11:21:40;101898.88;;;3.59;54.59
53932;BME280;39844;52.496;13.482;2023-02-26T11:24:12;101904.72;;;3.53;54.34
53932;BME280;39844;52.496;13.482;2023-02-26T11:26:44;101916.66;;;3.50;55.08
53932;BME280;39844;52.496;13.482;2023-02-26T11:29:17;101909.06;;;3.54;56.17
53932;BME280;39844;52.496;13.482;2023-02-26T11:31:47;101922.97;;;3.56;56.69
53932;BME280;39844;52.496;13.482;2023-02-26T11:34:12;101924.50;;;3.51;56.31
53932;BME280;39844;52.496;13.482;2023-02-26T11:36:41;101925.06;;;3.44;55.80
53932;BME280;39844;52.496;13.482;2023-02-26T11:39:15;101930.34;;;3.46;57.02
53932;BME280;39844;52.496;13.482;2023-02-26T11:41:43;101925.13;;;3.46;55.87
53932;BME280;39844;52.496;13.482;2023-02-26T11:44:25;101933.66;;;3.62;56.58
53932;BME280;39844;52.496;13.482;2023-02-26T11:46:56;101923.78;;;3.74;55.79
53932;BME280;39844;52.496;13.482;2023-02-26T11:49:26;101930.91;;;3.78;55.03
53932;BME280;39844;52.496;13.482;2023-02-26T11:52:16;101926.88;;;3.87;54.76
53932;BME280;39844;52.496;13.482;2023-02-26T11:54:44;101930.31;;;3.86;54.12
53932;BME280;39844;52.496;13.482;2023-02-26T11:57:16;101936.94;;;3.79;53.91
53932;BME280;39844;52.496;13.482;2023-02-26T11:59:44;101937.59;;;3.73;54.32
53932;BME280;39844;52.496;13.482;2023-02-26T12:02:13;101929.81;;;3.73;54.00
53932;BME280;39844;52.496;13.482;2023-02-26T12:04:42;101938.53;;;3.75;53.82
53932;BME280;39844;52.496;13.482;2023-02-26T12:07:11;101933.28;;;3.74;53.55
53932;BME280;39844;52.496;13.482;2023-02-26T12:09:37;101947.56;;;3.64;52.63
53932;BME280;39844;52.496;13.482;2023-02-26T12:12:20;101934.59;;;3.64;53.53
53932;BME280;39844;52.496;13.482;2023-02-26T12:20:16;101952.19;;;3.71;53.37
53932;BME280;39844;52.496;13.482;2023-02-26T12:23:05;101940.00;;;3.90;53.19
53932;BME280;39844;52.496;13.482;2023-02-26T12:38:47;101937.34;;;4.94;48.50
53932;BME280;39844;52.496;13.482;2023-02-26T12:41:58;101950.59;;;4.78;48.51
53932;BME280;39844;52.496;13.482;2023-02-26T12:47:27;101945.50;;;5.26;48.94
53932;BME280;39844;52.496;13.482;2023-02-26T12:53:04;101954.75;;;5.19;48.93
53932;BME280;39844;52.496;13.482;2023-02-26T13:09:17;101959.09;;;5.42;47.99
53932;BME280;39844;52.496;13.482;2023-02-26T13:12:39;101961.00;;;5.23;45.52
53932;BME280;39844;52.496;13.482;2023-02-26T13:18:03;101975.72;;;5.69;47.76
53932;BME280;39844;52.496;13.482;2023-02-26T13:20:25;101961.88;;;6.19;47.40
53932;BME280;39844;52.496;13.482;2023-02-26T13:23:03;101970.09;;;6.31;46.09
53932;BME280;39844;52.496;13.482;2023-02-26T13:25:41;101965.66;;;6.02;46.60
53932;BME280;39844;52.496;13.482;2023-02-26T13:28:23;101972.44;;;5.75;46.66
53932;BME280;39844;52.496;13.482;2023-02-26T13:30:52;101970.94;;;5.34;45.63
53932;BME280;39844;52.496;13.482;2023-02-26T13:33:29;101980.16;;;5.02;46.88
53932;BME280;39844;52.496;13.482;2023-02-26T13:35:56;101992.09;;;4.75;47.70
53932;BME280;39844;52.496;13.482;2023-02-26T13:38:37;101990.28;;;4.52;48.33
53932;BME280;39844;52.496;13.482;2023-02-26T13:50:25;101989.41;;;4.52;49.94
53932;BME280;39844;52.496;13.482;2023-02-26T13:55:47;102003.53;;;4.37;48.71
53932;BME280;39844;52.496;13.482;2023-02-26T14:01:18;101996.03;;;4.04;49.06
53932;BME280;39844;52.496;13.482;2023-02-26T14:04:07;101991.53;;;4.00;49.47
53932;BME280;39844;52.496;13.482;2023-02-26T14:09:15;102003.97;;;4.07;49.75
53932;BME280;39844;52.496;13.482;2023-02-26T14:12:00;102000.66;;;4.11;49.65
53932;BME280;39844;52.496;13.482;2023-02-26T14:14:41;101995.84;;;4.20;49.28
53932;BME280;39844;52.496;13.482;2023-02-26T14:19:36;102013.41;;;4.46;48.66
53932;BME280;39844;52.496;13.482;2023-02-26T14:24:38;102016.44;;;4.77;47.68
53932;BME280;39844;52.496;13.482;2023-02-26T14:35:04;102028.22;;;4.47;47.68
53932;BME280;39844;52.496;13.482;2023-02-26T14:37:31;102018.13;;;4.34;47.55
53932;BME280;39844;52.496;13.482;2023-02-26T14:40:17;102023.44;;;4.16;47.75
53932;BME280;39844;52.496;13.482;2023-02-26T14:47:51;102043.91;;;3.90;48.40
53932;BME280;39844;52.496;13.482;2023-02-26T14:50:20;102037.34;;;3.98;48.75
53932;BME280;39844;52.496;13.482;2023-02-26T15:06:23;102043.56;;;3.82;48.05
53932;BME280;39844;52.496;13.482;2023-02-26T15:14:08;102048.56;;;3.58;47.70
53932;BME280;39844;52.496;13.482;2023-02-26T15:24:59;102048.47;;;4.35;47.09
53932;BME280;39844;52.496;13.482;2023-02-26T15:27:28;102053.50;;;4.51;45.94
53932;BME280;39844;52.496;13.482;2023-02-26T15:29:54;102053.94;;;4.62;46.20
53932;BME280;39844;52.496;13.482;2023-02-26T15:32:28;102056.22;;;4.75;45.77
53932;BME280;39844;52.496;13.482;2023-02-26T15:35:13;102062.88;;;4.89;46.36
53932;BME280;39844;52.496;13.482;2023-02-26T15:37:39;102060.97;;;4.85;45.73